Time;durP1;ratioP1;P1;durP2;ratioP2;P2;SDS_P1;SDS_P2;PMS_P1;PMS_P2;Temp;Humidity;BMP_temperature;BMP_pressure;BME280_temperature;BME280_humidity;BME280_pressure;Samples;Min_cycle;Max_cycle;Signal;HPM_P1;HPM_P2
2022/09/24 00:00:30;;;;;;;10.20;3.55;;;25.20;99.90;;;;;;5024803;23;20053;-51
2022/09/24 00:02:56;;;;;;;4.82;3.17;;;25.20;99.90;;;;;;5032598;28;20045;-50
2022/09/24 00:05:22;;;;;;;10.90;3.47;;;25.30;99.90;;;;;;5032878;28;20473;-50
2022/09/24 00:07:48;;;;;;;8.65;3.97;;;25.30;99.90;;;;;;5032681;28;20044;-50
2022/09/24 00:10:13;;;;;;;12.80;3.90;;;25.30;99.90;;;;;;5032649;28;20040;-51
2022/09/24 00:12:39;;;;;;;8.73;3.03;;;25.20;99.90;;;;;;5014928;28;20440;-50
2022/09/24 00:15:05;;;;;;;8.57;2.80;;;25.20;99.90;;;;;;5032545;28;20021;-50
2022/09/24 00:17:31;;;;;;;5.05;2.85;;;25.20;99.90;;;;;;5032391;28;20033;-51
2022/09/24 00:19:57;;;;;;;5.90;2.72;;;25.20;99.90;;;;;;5032616;28;20432;-52
2022/09/24 00:22:23;;;;;;;5.50;2.90;;;25.20;99.90;;;;;;5014835;28;20048;-50
2022/09/24 00:27:33;;;;;;;4.82;2.33;;;25.20;99.90;;;;;;5032494;28;20099;-49
2022/09/24 00:29:58;;;;;;;9.82;3.25;;;25.20;99.90;;;;;;5032124;28;20025;-50
2022/09/24 00:32:26;;;;;;;5.93;2.65;;;25.20;99.90;;;;;;5032536;28;20053;-53
2022/09/24 00:34:52;;;;;;;5.75;2.40;;;25.20;99.90;;;;;;5032274;28;20075;-50
2022/09/24 00:37:18;;;;;;;3.92;2.30;;;25.20;99.90;;;;;;5032052;28;20030;-50
2022/09/24 00:39:44;;;;;;;6.75;2.40;;;25.20;99.90;;;;;;5032014;28;20022;-52
2022/09/24 00:42:11;;;;;;;11.27;2.92;;;25.20;99.90;;;;;;5031787;28;20038;-51
2022/09/24 00:44:40;;;;;;;4.68;2.50;;;25.20;99.90;;;;;;5031229;28;20022;-50
2022/09/24 00:47:37;;;;;;;4.80;2.75;;;25.20;99.90;;;;;;5031769;28;20488;-50
2022/09/24 00:50:14;;;;;;;;;;;25.20;99.90;;;;;;5027522;28;20029;-52
2022/09/24 00:52:59;;;;;;;;;;;25.20;99.90;;;;;;5032214;28;19912;-53
2022/09/24 00:55:26;;;;;;;8.45;2.88;;;25.20;99.90;;;;;;5032032;28;19905;-50
2022/09/24 00:57:57;;;;;;;4.43;2.63;;;25.10;99.90;;;;;;5031977;28;20484;-51
2022/09/24 01:00:24;;;;;;;7.25;3.17;;;25.10;99.90;;;;;;5032189;28;20049;-51
2022/09/24 01:02:55;;;;;;;7.78;2.40;;;25.10;99.90;;;;;;5031495;28;20040;-51
2022/09/24 01:05:21;;;;;;;5.47;2.50;;;25.10;99.90;;;;;;5031527;28;20021;-50
2022/09/24 01:07:47;;;;;;;8.18;2.72;;;25.10;99.90;;;;;;5031641;28;20174;-51
2022/09/24 01:10:46;;;;;;;4.47;2.85;;;25.10;99.90;;;;;;5031548;28;20021;-50
2022/09/24 01:13:13;;;;;;;4.85;2.72;;;25.10;99.90;;;;;;5031308;28;20029;-51
2022/09/24 01:15:47;;;;;;;5.30;2.50;;;25.10;99.90;;;;;;5031481;28;20026;-51
2022/09/24 01:18:32;;;;;;;5.68;2.38;;;25.00;99.90;;;;;;5031438;28;20486;-49
2022/09/24 01:21:17;;;;;;;3.28;2.50;;;25.00;99.90;;;;;;5031432;28;20029;-52
2022/09/24 01:23:42;;;;;;;5.05;2.45;;;25.00;99.90;;;;;;5031419;28;20033;-52
2022/09/24 01:26:11;;;;;;;3.83;2.38;;;25.00;99.90;;;;;;5031316;28;20025;-52
2022/09/24 01:28:49;;;;;;;6.18;2.30;;;25.00;99.90;;;;;;5031352;28;20029;-52
2022/09/24 01:31:24;;;;;;;5.60;2.90;;;25.00;99.90;;;;;;5031256;28;20480;-51
2022/09/24 01:33:52;;;;;;;4.97;2.70;;;25.00;99.90;;;;;;5031457;28;20025;-50
2022/09/24 01:36:20;;;;;;;4.20;2.13;;;24.90;99.90;;;;;;5031194;28;20030;-52
2022/09/24 01:38:48;;;;;;;5.13;2.10;;;24.90;99.90;;;;;;5031117;28;20033;-50
2022/09/24 01:41:15;;;;;;;3.17;2.08;;;24.90;99.90;;;;;;5031295;28;20074;-50
2022/09/24 01:43:41;;;;;;;9.80;3.15;;;24.80;99.90;;;;;;5013660;28;20111;-51
2022/09/24 01:46:09;;;;;;;11.18;2.78;;;24.80;99.90;;;;;;5031283;28;20405;-52
2022/09/24 01:48:39;;;;;;;8.13;2.83;;;24.80;99.90;;;;;;5031243;28;20080;-49
2022/09/24 01:51:13;;;;;;;3.58;2.50;;;24.80;99.90;;;;;;5031181;28;20113;-50
2022/09/24 01:53:46;;;;;;;6.15;2.97;;;24.80;99.90;;;;;;5031046;28;20112;-50
2022/09/24 01:57:00;;;;;;;4.07;2.53;;;24.80;99.90;;;;;;5034699;28;20018;-52
2022/09/24 01:59:40;;;;;;;4.45;2.22;;;24.80;99.90;;;;;;5022083;28;20051;-51
2022/09/24 02:02:16;;;;;;;10.80;2.65;;;24.70;99.90;;;;;;5034805;28;20026;-53
2022/09/24 02:04:49;;;;;;;7.22;2.22;;;24.70;99.90;;;;;;5034898;28;20104;-52
2022/09/24 02:07:32;;;;;;;9.13;2.30;;;24.70;99.90;;;;;;5035191;28;20032;-51
2022/09/24 02:09:58;;;;;;;5.25;1.95;;;24.70;99.90;;;;;;5035058;28;20017;-50
2022/09/24 02:12:41;;;;;;;6.50;2.63;;;24.70;99.90;;;;;;5034909;28;20528;-50
2022/09/24 02:15:10;;;;;;;4.75;2.47;;;24.70;99.90;;;;;;5034967;28;20025;-51
2022/09/24 02:17:38;;;;;;;5.20;2.40;;;24.70;99.90;;;;;;5034643;28;20047;-49
2022/09/24 02:20:08;;;;;;;4.95;2.70;;;24.70;99.90;;;;;;5016842;28;20480;-49
2022/09/24 02:22:35;;;;;;;6.22;3.05;;;24.70;99.90;;;;;;5034595;28;20088;-49
2022/09/24 02:25:04;;;;;;;5.90;2.43;;;24.70;99.90;;;;;;5034832;28;20018;-50
2022/09/24 02:27:30;;;;;;;4.40;2.42;;;24.70;99.90;;;;;;5034632;28;20258;-50
2022/09/24 02:29:57;;;;;;;8.38;2.60;;;24.70;99.90;;;;;;5034587;28;20071;-49
2022/09/24 02:32:28;;;;;;;6.30;2.58;;;24.70;99.90;;;;;;5034578;28;20028;-50
2022/09/24 02:35:02;;;;;;;8.82;2.50;;;24.70;99.90;;;;;;5034398;28;20072;-52
2022/09/24 02:37:28;;;;;;;7.55;2.30;;;24.60;99.90;;;;;;5034620;28;20029;-53
2022/09/24 02:39:55;;;;;;;4.45;2.53;;;24.60;99.90;;;;;;5016491;28;20022;-53
2022/09/24 02:42:21;;;;;;;6.13;2.70;;;24.60;99.90;;;;;;5034217;28;20124;-53
2022/09/24 02:44:47;;;;;;;7.05;2.63;;;24.60;99.90;;;;;;5034180;28;20354;-51
2022/09/24 02:47:13;;;;;;;6.80;2.70;;;24.60;99.90;;;;;;5034219;28;20061;-52
2022/09/24 02:49:39;;;;;;;6.10;2.58;;;24.60;99.90;;;;;;5033994;28;20025;-53
2022/09/24 02:52:05;;;;;;;5.93;2.28;;;24.60;99.90;;;;;;5034013;28;20036;-52
2022/09/24 02:54:30;;;;;;;8.20;2.53;;;24.60;99.90;;;;;;5034297;28;20413;-52
2022/09/24 02:56:56;;;;;;;4.25;2.38;;;24.50;99.90;;;;;;5033955;28;20025;-51
2022/09/24 02:59:22;;;;;;;3.92;2.30;;;24.50;99.90;;;;;;5034358;28;20488;-51
2022/09/24 03:01:49;;;;;;;3.35;2.38;;;24.50;99.90;;;;;;5033893;28;20029;-52
2022/09/24 03:04:15;;;;;;;5.53;2.90;;;24.50;99.90;;;;;;5033709;28;20033;-52
2022/09/24 03:06:41;;;;;;;6.03;2.88;;;24.50;99.90;;;;;;5033073;28;20404;-51
2022/09/24 03:09:07;;;;;;;6.75;2.58;;;24.50;99.90;;;;;;5033836;28;20562;-51
2022/09/24 03:11:34;;;;;;;7.45;3.10;;;24.50;99.90;;;;;;5033972;28;20239;-52
2022/09/24 03:14:00;;;;;;;7.90;3.33;;;24.50;99.90;;;;;;5033793;28;20524;-50
2022/09/24 03:16:26;;;;;;;12.30;3.22;;;24.50;99.90;;;;;;5034199;28;20413;-52
2022/09/24 03:18:51;;;;;;;5.30;3.05;;;24.50;99.90;;;;;;5033643;28;20053;-52
2022/09/24 03:21:20;;;;;;;4.75;3.17;;;24.50;99.90;;;;;;5033491;28;20473;-52
2022/09/24 03:23:47;;;;;;;3.95;2.65;;;24.40;99.90;;;;;;5033519;28;20068;-53
2022/09/24 03:26:13;;;;;;;9.63;4.07;;;24.50;99.90;;;;;;5033533;28;20453;-52
2022/09/24 03:28:39;;;;;;;8.10;3.20;;;24.40;99.90;;;;;;5033332;28;20033;-53
2022/09/24 03:31:06;;;;;;;6.32;3.17;;;24.40;99.90;;;;;;5033662;28;20036;-52
2022/09/24 03:33:41;;;;;;;8.13;3.30;;;24.40;99.90;;;;;;5033537;28;20416;-51
2022/09/24 03:36:21;;;;;;;11.27;2.65;;;24.40;99.90;;;;;;5033309;28;20037;-51
2022/09/24 03:38:49;;;;;;;8.02;3.13;;;24.30;99.90;;;;;;5033260;28;20013;-50
2022/09/24 03:41:16;;;;;;;5.82;2.58;;;24.30;99.90;;;;;;5033218;28;20355;-51
2022/09/24 03:43:42;;;;;;;5.03;2.22;;;24.30;99.90;;;;;;5033078;28;20484;-51
2022/09/24 03:46:14;;;;;;;3.85;2.60;;;24.30;99.90;;;;;;5033034;28;20037;-52
2022/09/24 03:48:40;;;;;;;4.90;2.10;;;24.30;99.90;;;;;;5033104;28;20052;-51
2022/09/24 03:51:08;;;;;;;6.10;2.80;;;24.30;99.90;;;;;;5033441;28;20473;-51
2022/09/24 03:53:34;;;;;;;6.63;2.30;;;24.30;99.90;;;;;;5033243;28;20029;-50
2022/09/24 03:56:01;;;;;;;4.88;2.25;;;24.30;99.90;;;;;;5033025;28;20359;-49
2022/09/24 03:58:28;;;;;;;5.80;2.10;;;24.20;99.90;;;;;;5015183;28;20049;-51
2022/09/24 04:00:56;;;;;;;4.45;2.10;;;24.20;99.90;;;;;;5033563;28;20046;-51
2022/09/24 04:03:22;;;;;;;9.65;3.00;;;24.30;99.90;;;;;;5032559;28;20041;-51
2022/09/24 04:05:51;;;;;;;4.65;2.60;;;24.30;99.90;;;;;;5015081;28;20079;-51
2022/09/24 04:08:20;;;;;;;6.18;2.20;;;24.30;99.90;;;;;;5032726;28;20026;-51
2022/09/24 04:10:48;;;;;;;6.65;2.08;;;24.30;99.90;;;;;;5032580;28;20033;-51
2022/09/24 04:13:15;;;;;;;3.50;1.73;;;24.30;99.90;;;;;;5032647;28;20100;-51
2022/09/24 04:15:41;;;;;;;6.23;1.90;;;24.20;99.90;;;;;;5032562;28;20021;-51
2022/09/24 04:18:07;;;;;;;8.82;1.85;;;24.20;99.90;;;;;;5032435;28;20025;-50
2022/09/24 04:20:33;;;;;;;5.35;1.75;;;24.20;99.90;;;;;;5032295;28;20053;-51
2022/09/24 04:23:00;;;;;;;5.88;1.88;;;24.20;99.90;;;;;;5032323;28;20041;-51
2022/09/24 04:25:29;;;;;;;6.15;1.90;;;24.20;99.90;;;;;;5032268;28;20030;-52
2022/09/24 04:27:59;;;;;;;4.10;1.70;;;24.20;99.90;;;;;;5032264;28;20025;-51
2022/09/24 04:30:26;;;;;;;2.97;1.80;;;24.20;99.90;;;;;;5032144;28;20480;-50
2022/09/24 04:32:52;;;;;;;;;;;24.20;99.90;;;;;;5032785;28;20056;-51
2022/09/24 04:35:20;;;;;;;4.40;1.80;;;24.20;99.90;;;;;;5032193;28;19909;-51
2022/09/24 04:37:47;;;;;;;5.70;1.73;;;24.20;99.90;;;;;;5032197;28;20025;-51
2022/09/24 04:40:14;;;;;;;5.85;2.30;;;24.20;99.90;;;;;;5032015;28;20549;-51
2022/09/24 04:42:42;;;;;;;5.53;1.80;;;24.20;99.90;;;;;;5032022;28;20037;-51
2022/09/24 04:45:09;;;;;;;3.20;1.75;;;24.20;99.90;;;;;;5032155;28;20086;-51
2022/09/24 04:47:36;;;;;;;4.68;1.85;;;24.20;99.90;;;;;;5031976;28;20033;-52
2022/09/24 04:50:02;;;;;;;5.05;2.20;;;24.20;99.90;;;;;;5032009;28;20021;-50
2022/09/24 04:52:31;;;;;;;6.17;2.30;;;24.20;99.90;;;;;;5031849;28;20036;-50
2022/09/24 04:54:58;;;;;;;5.05;2.10;;;24.20;99.90;;;;;;5031980;28;20041;-51
2022/09/24 04:57:25;;;;;;;3.65;2.55;;;24.20;99.90;;;;;;5031844;28;20499;-52
2022/09/24 04:59:51;;;;;;;8.48;2.38;;;24.20;99.90;;;;;;5031606;28;20061;-51
2022/09/24 05:02:17;;;;;;;5.50;1.92;;;24.20;99.90;;;;;;5031554;28;20095;-51
2022/09/24 05:04:43;;;;;;;4.63;2.08;;;24.20;99.90;;;;;;5031659;28;20083;-51
2022/09/24 05:07:09;;;;;;;4.82;1.80;;;24.10;99.90;;;;;;5031766;28;20017;-52
2022/09/24 05:09:36;;;;;;;7.72;2.45;;;24.20;99.90;;;;;;5013877;28;20507;-51
2022/09/24 05:12:02;;;;;;;10.75;2.38;;;24.20;99.90;;;;;;5031558;28;20037;-52
2022/09/24 05:14:29;;;;;;;8.90;2.53;;;24.20;99.90;;;;;;5031516;28;20029;-52
2022/09/24 05:16:55;;;;;;;6.20;2.35;;;24.20;99.90;;;;;;5031536;28;20009;-52
2022/09/24 05:19:21;;;;;;;4.30;2.10;;;24.20;99.90;;;;;;5031515;28;20029;-52
2022/09/24 05:21:47;;;;;;;8.35;2.33;;;24.20;99.90;;;;;;5031380;28;20051;-52
2022/09/24 05:24:13;;;;;;;5.40;2.22;;;24.20;99.90;;;;;;5031551;28;20100;-53
2022/09/24 05:29:24;;;;;;;9.93;3.58;;;24.20;99.90;;;;;;5031183;28;20615;-51
2022/09/24 05:31:49;;;;;;;6.07;2.83;;;24.20;99.90;;;;;;5028630;28;20025;-51
2022/09/24 05:34:15;;;;;;;6.15;2.90;;;24.20;99.90;;;;;;5029179;28;20025;-51
2022/09/24 05:36:44;;;;;;;6.13;2.17;;;24.20;99.90;;;;;;5017294;28;20033;-50
2022/09/24 05:39:14;;;;;;;4.78;2.13;;;24.20;99.90;;;;;;5011394;28;20049;-50
2022/09/24 05:41:40;;;;;;;6.18;3.20;;;24.20;99.90;;;;;;5011526;28;20022;-50
2022/09/24 05:44:06;;;;;;;7.80;2.70;;;24.20;99.90;;;;;;5011303;28;20041;-49
2022/09/24 05:46:32;;;;;;;5.13;2.65;;;24.20;99.90;;;;;;5019017;28;20025;-47
2022/09/24 05:48:58;;;;;;;5.60;2.58;;;24.20;99.90;;;;;;5030458;28;20465;-48
2022/09/24 05:51:24;;;;;;;6.75;2.72;;;24.20;99.90;;;;;;5030720;28;20028;-51
2022/09/24 05:53:50;;;;;;;8.18;4.00;;;24.20;99.90;;;;;;5030236;28;20115;-51
2022/09/24 05:56:16;;;;;;;7.57;3.45;;;24.20;99.90;;;;;;5029597;28;20030;-50
2022/09/24 05:58:42;;;;;;;12.98;7.55;;;24.30;99.90;;;;;;5030312;28;20017;-50
2022/09/24 06:01:08;;;;;;;4.28;2.58;;;24.30;99.90;;;;;;5030930;28;20111;-50
2022/09/24 06:03:34;;;;;;;5.88;2.28;;;24.30;99.90;;;;;;5030837;28;20045;-50
2022/09/24 06:06:01;;;;;;;6.53;2.47;;;24.30;99.90;;;;;;5030848;28;20151;-56
2022/09/24 06:08:28;;;;;;;6.18;2.20;;;24.30;99.90;;;;;;5031112;28;20552;-51
2022/09/24 06:11:01;;;;;;;;;;;24.30;99.90;;;;;;5031364;28;20025;-51
2022/09/24 06:13:27;;;;;;;8.15;2.22;;;24.30;99.90;;;;;;5030932;28;19912;-50
2022/09/24 06:16:07;;;;;;;5.93;3.17;;;24.30;99.90;;;;;;5030716;28;20030;-50
2022/09/24 06:18:35;;;;;;;10.00;3.92;;;24.30;99.90;;;;;;5030786;28;20050;-51
2022/09/24 06:21:06;;;;;;;;;;;24.40;99.90;;;;;;5031189;28;20036;-51
2022/09/24 06:23:32;;;;;;;8.95;3.65;;;24.40;99.90;;;;;;5030742;28;19975;-50
2022/09/24 06:25:58;;;;;;;8.60;3.28;;;24.40;99.90;;;;;;5030656;28;20036;-51
2022/09/24 06:28:24;;;;;;;13.85;3.80;;;24.40;99.90;;;;;;5030690;28;20025;-50
2022/09/24 06:30:50;;;;;;;8.48;3.25;;;24.40;99.90;;;;;;5030689;28;20044;-50
2022/09/24 06:33:16;;;;;;;13.68;3.90;;;24.40;99.90;;;;;;5030808;28;20028;-51
2022/09/24 06:35:43;;;;;;;7.55;3.08;;;24.40;99.90;;;;;;5012913;28;20384;-51
2022/09/24 06:38:15;;;;;;;7.90;3.03;;;24.40;99.90;;;;;;5030656;28;20084;-51
2022/09/24 06:40:44;;;;;;;8.90;3.30;;;24.40;99.90;;;;;;5030709;28;20105;-50
2022/09/24 06:43:11;;;;;;;12.90;5.93;;;24.40;99.90;;;;;;5033813;28;20388;-51
2022/09/24 06:45:37;;;;;;;6.80;3.60;;;24.50;99.90;;;;;;5034248;28;20029;-50
2022/09/24 06:48:04;;;;;;;11.30;3.58;;;24.50;99.90;;;;;;5034163;28;20056;-51
2022/09/24 06:50:31;;;;;;;;;;;24.50;99.90;;;;;;5034408;28;20392;-50
2022/09/24 06:52:57;;;;;;;16.53;3.77;;;24.50;99.90;;;;;;5033844;28;19905;-50
2022/09/24 06:55:23;;;;;;;19.52;5.40;;;24.50;99.90;;;;;;5033788;28;20259;-51
2022/09/24 06:57:59;;;;;;;10.52;4.57;;;24.50;99.90;;;;;;5034055;28;20112;-51
2022/09/24 07:00:25;;;;;;;10.60;4.38;;;24.50;99.90;;;;;;5033746;28;20050;-51
2022/09/24 07:02:51;;;;;;;8.82;3.72;;;24.50;99.90;;;;;;5033802;28;20117;-51
2022/09/24 07:05:16;;;;;;;8.80;3.72;;;24.50;99.90;;;;;;5033879;28;20410;-51
2022/09/24 07:07:42;;;;;;;8.98;3.55;;;24.50;99.90;;;;;;5033567;28;20034;-51
2022/09/24 07:10:09;;;;;;;12.20;4.80;;;24.50;99.90;;;;;;5033855;28;20052;-52
2022/09/24 07:12:35;;;;;;;14.13;3.87;;;24.50;99.90;;;;;;5033679;28;20033;-50
2022/09/24 07:15:01;;;;;;;19.95;6.32;;;24.60;99.90;;;;;;5033583;28;20034;-50
2022/09/24 07:17:27;;;;;;;19.52;5.05;;;24.60;99.90;;;;;;5033564;28;20036;-52
2022/09/24 07:19:54;;;;;;;14.55;4.97;;;24.60;99.90;;;;;;5033842;28;20458;-51
2022/09/24 07:22:20;;;;;;;16.25;6.45;;;24.60;99.90;;;;;;5033580;28;20040;-51
2022/09/24 07:24:47;;;;;;;23.43;6.93;;;24.60;99.90;;;;;;5033677;28;20022;-51
2022/09/24 07:27:13;;;;;;;10.77;4.13;;;24.70;99.90;;;;;;5015861;28;20029;-52
2022/09/24 07:29:39;;;;;;;8.82;4.47;;;24.70;99.90;;;;;;5033228;28;20404;-52
2022/09/24 07:32:05;;;;;;;10.40;4.18;;;24.70;99.90;;;;;;5033387;28;20096;-50
2022/09/24 07:34:32;;;;;;;6.00;4.28;;;24.70;99.90;;;;;;5033359;28;20029;-51
2022/09/24 07:36:58;;;;;;;10.23;4.38;;;24.80;99.90;;;;;;5033199;28;20029;-50
2022/09/24 07:39:25;;;;;;;10.20;4.53;;;24.80;99.90;;;;;;5033195;28;20044;-51
2022/09/24 07:41:51;;;;;;;8.60;4.68;;;24.80;99.90;;;;;;5033656;28;20101;-50
2022/09/24 07:44:21;;;;;;;8.98;4.60;;;24.80;99.90;;;;;;5015544;28;20049;-51
2022/09/24 07:46:51;;;;;;;8.57;3.40;;;24.90;99.90;;;;;;5015372;28;20448;-50
2022/09/24 07:49:17;;;;;;;6.07;3.42;;;24.90;99.90;;;;;;5033182;28;20021;-50
2022/09/24 07:51:44;;;;;;;11.25;3.33;;;25.00;99.90;;;;;;5032854;28;20030;-51
2022/09/24 07:54:10;;;;;;;6.55;2.97;;;25.00;99.90;;;;;;5032667;28;20033;-51
2022/09/24 07:56:36;;;;;;;10.40;2.88;;;25.00;99.90;;;;;;5015241;28;20025;-51
2022/09/24 07:59:05;;;;;;;6.75;3.42;;;25.00;99.90;;;;;;5032822;28;20032;-51
2022/09/24 08:01:31;;;;;;;9.52;3.65;;;25.00;99.90;;;;;;5032736;28;20037;-51
2022/09/24 08:03:58;;;;;;;5.28;3.00;;;25.00;99.90;;;;;;5032734;28;20037;-51
2022/09/24 08:06:24;;;;;;;8.20;2.60;;;25.10;99.90;;;;;;5032837;28;20100;-50
2022/09/24 08:08:55;;;;;;;6.25;2.60;;;25.10;99.90;;;;;;5014883;28;20033;-50
2022/09/24 08:11:21;;;;;;;5.28;3.00;;;25.20;99.90;;;;;;5032562;28;20067;-50
2022/09/24 08:13:47;;;;;;;4.68;2.97;;;25.20;99.90;;;;;;5032394;28;20025;-51
2022/09/24 08:16:13;;;;;;;14.98;3.35;;;25.20;99.90;;;;;;5032406;28;20159;-51
2022/09/24 08:18:42;;;;;;;7.40;2.80;;;25.30;99.90;;;;;;5032374;28;20460;-51
2022/09/24 08:21:10;;;;;;;5.25;2.47;;;25.30;99.90;;;;;;5032398;28;20025;-50
2022/09/24 08:23:38;;;;;;;5.07;2.60;;;25.30;99.90;;;;;;5032216;28;20076;-51
2022/09/24 08:26:04;;;;;;;8.95;3.33;;;25.30;99.90;;;;;;5014360;28;20037;-50
2022/09/24 08:28:30;;;;;;;9.70;3.35;;;25.30;99.90;;;;;;5032084;28;20037;-51
2022/09/24 08:31:01;;;;;;;8.95;3.20;;;25.30;99.90;;;;;;5032190;28;20420;-52
2022/09/24 08:33:27;;;;;;;6.63;2.78;;;25.30;99.90;;;;;;5032074;28;20116;-52
2022/09/24 08:35:53;;;;;;;8.70;3.23;;;25.30;99.90;;;;;;5032215;28;20037;-53
2022/09/24 08:38:22;;;;;;;9.10;3.20;;;25.40;99.90;;;;;;5031906;28;20263;-50
2022/09/24 08:41:12;;;;;;;8.10;2.90;;;25.40;99.90;;;;;;5031880;28;20076;-51
2022/09/24 08:43:44;;;;;;;3.10;2.45;;;25.40;99.90;;;;;;5031994;28;20053;-51
2022/09/24 08:49:13;;;;;;;6.40;2.70;;;25.50;99.90;;;;;;5032062;28;20075;-51
2022/09/24 08:51:50;;;;;;;5.55;3.10;;;25.50;99.90;;;;;;5031643;28;20029;-51
2022/09/24 08:54:17;;;;;;;7.72;3.15;;;25.60;99.90;;;;;;5031772;28;20021;-52
2022/09/24 08:56:45;;;;;;;11.48;3.38;;;25.60;99.90;;;;;;5031704;28;20025;-52
2022/09/24 08:59:22;;;;;;;8.20;2.38;;;25.70;99.90;;;;;;5031711;28;20029;-53
2022/09/24 09:02:24;;;;;;;4.63;2.35;;;25.70;99.90;;;;;;5031649;28;20056;-53
2022/09/24 09:05:08;;;;;;;14.80;6.00;;;25.70;99.90;;;;;;5030900;28;20026;-52
2022/09/24 09:07:39;;;;;;;4.43;2.60;;;25.80;99.90;;;;;;5031749;28;20084;-52
2022/09/24 09:10:11;;;;;;;10.07;3.80;;;25.90;99.90;;;;;;5031342;28;20014;-52
2022/09/24 09:12:59;;;;;;;7.35;2.33;;;25.90;99.90;;;;;;5031430;28;20079;-52
2022/09/24 09:15:30;;;;;;;10.02;2.78;;;26.00;99.90;;;;;;5013963;28;20064;-52
2022/09/24 09:18:20;;;;;;;3.42;2.05;;;26.00;99.90;;;;;;5013775;28;20018;-52
2022/09/24 09:20:48;;;;;;;4.63;2.45;;;26.00;99.90;;;;;;5031297;28;20036;-52
2022/09/24 09:23:19;;;;;;;9.23;3.33;;;26.10;99.90;;;;;;5031195;28;20362;-52
2022/09/24 09:25:53;;;;;;;3.88;2.00;;;26.10;99.90;;;;;;5031105;28;20049;-53
2022/09/24 09:28:19;;;;;;;6.80;2.50;;;26.10;99.90;;;;;;5031156;28;20025;-52
2022/09/24 09:30:55;;;;;;;6.68;2.40;;;26.10;99.90;;;;;;5031130;28;20025;-52
2022/09/24 09:33:38;;;;;;;9.60;1.98;;;26.20;99.90;;;;;;5031222;28;20512;-52
2022/09/24 09:36:16;;;;;;;5.00;2.35;;;26.20;99.90;;;;;;5031054;28;20036;-51
2022/09/24 09:38:57;;;;;;;7.13;2.33;;;26.20;99.90;;;;;;5031025;28;20021;-52
2022/09/24 09:41:33;;;;;;;6.93;2.38;;;26.30;99.90;;;;;;5031016;28;20018;-52
2022/09/24 09:44:10;;;;;;;5.35;2.40;;;26.40;99.90;;;;;;5031258;28;20405;-53
2022/09/24 09:46:41;;;;;;;4.85;2.97;;;26.40;99.90;;;;;;5031217;28;20115;-52
2022/09/24 09:49:07;;;;;;;8.43;3.20;;;26.50;99.90;;;;;;5031021;28;20075;-51
2022/09/24 09:51:39;;;;;;;13.07;9.00;;;26.50;99.90;;;;;;5030910;28;20021;-51
2022/09/24 09:54:05;;;;;;;14.07;9.38;;;26.50;99.90;;;;;;5030942;28;20026;-51
2022/09/24 09:56:48;;;;;;;11.80;8.98;;;26.50;99.90;;;;;;5013326;28;20084;-51
2022/09/24 09:59:21;;;;;;;9.73;5.57;;;26.50;99.90;;;;;;5031080;28;20104;-50
2022/09/24 10:01:54;;;;;;;9.98;4.13;;;26.40;99.90;;;;;;5030908;28;20045;-51
2022/09/24 10:04:32;;;;;;;5.57;3.80;;;26.40;99.90;;;;;;5030510;28;20045;-52
2022/09/24 10:07:08;;;;;;;7.63;5.28;;;26.40;99.90;;;;;;5030961;28;20521;-52
2022/09/24 10:09:35;;;;;;;14.60;9.15;;;26.40;99.90;;;;;;5030701;28;20044;-52
2022/09/24 10:12:12;;;;;;;11.90;6.47;;;26.40;99.90;;;;;;5030934;28;20021;-52
2022/09/24 10:14:38;;;;;;;34.45;29.85;;;26.40;99.90;;;;;;5030661;28;20080;-54
2022/09/24 10:17:05;;;;;;;9.93;7.65;;;26.50;99.90;;;;;;5034171;28;20558;-51
2022/09/24 10:19:35;;;;;;;7.13;4.60;;;26.50;99.90;;;;;;5034914;28;20021;-55
2022/09/24 10:22:27;;;;;;;12.00;3.83;;;26.50;99.90;;;;;;5034536;28;20098;-54
2022/09/24 10:24:57;;;;;;;12.25;4.50;;;26.50;99.90;;;;;;5013810;28;20503;-54
2022/09/24 10:27:33;;;;;;;6.40;3.75;;;26.60;99.90;;;;;;5034323;28;20432;-53
2022/09/24 10:33:03;;;;;;;14.27;7.10;;;26.70;99.90;;;;;;5034631;28;20317;-53
2022/09/24 10:35:34;;;;;;;8.38;4.25;;;26.70;99.90;;;;;;5034428;28;20030;-54
2022/09/24 10:38:01;;;;;;;14.95;5.88;;;26.70;99.90;;;;;;5034389;28;20079;-53
2022/09/24 10:40:38;;;;;;;14.43;6.10;;;26.80;99.90;;;;;;5016579;28;20079;-54
2022/09/24 10:43:05;;;;;;;11.07;7.13;;;26.80;99.90;;;;;;5034038;28;20392;-53
2022/09/24 10:45:37;;;;;;;16.23;10.70;;;26.80;99.90;;;;;;5034314;28;20021;-52
2022/09/24 10:48:18;;;;;;;9.73;7.70;;;26.80;99.90;;;;;;5034340;28;20111;-53
2022/09/24 10:50:59;;;;;;;8.68;4.65;;;26.80;99.90;;;;;;5033789;28;20385;-53
2022/09/24 10:53:26;;;;;;;9.63;4.85;;;26.80;99.90;;;;;;5033990;28;20041;-54
2022/09/24 10:56:13;;;;;;;8.82;5.32;;;26.90;99.90;;;;;;5033948;28;20142;-53
2022/09/24 10:58:52;;;;;;;5.53;3.00;;;26.90;99.90;;;;;;5034046;28;20038;-52
2022/09/24 11:01:53;;;;;;;9.90;3.58;;;26.90;99.90;;;;;;5033863;28;20453;-52
2022/09/24 11:05:05;;;;;;;11.73;4.60;;;27.00;99.90;;;;;;5033683;28;20116;-52
2022/09/24 11:07:42;;;;;;;7.32;3.05;;;27.00;99.90;;;;;;5030894;28;20452;-53
2022/09/24 11:10:26;;;;;;;6.38;2.97;;;27.10;99.90;;;;;;5033724;28;20029;-53
2022/09/24 11:13:02;;;;;;;5.32;3.03;;;27.10;99.90;;;;;;5033571;28;20021;-53
2022/09/24 11:15:50;;;;;;;6.75;3.20;;;27.20;99.90;;;;;;5033463;28;20481;-52
2022/09/24 11:18:44;;;;;;;8.85;4.13;;;27.20;99.90;;;;;;5033462;28;20390;-52
2022/09/24 11:21:42;;;;;;;8.73;4.28;;;27.30;99.90;;;;;;5015564;28;20123;-52
2022/09/24 11:24:38;;;;;;;6.65;3.30;;;27.30;99.90;;;;;;5025039;28;20088;-54
2022/09/24 11:27:18;;;;;;;7.78;3.13;;;27.30;99.90;;;;;;5032556;28;20120;-55
2022/09/24 11:30:01;;;;;;;12.45;3.45;;;27.40;99.90;;;;;;5032928;28;20036;-53
2022/09/24 11:32:40;;;;;;;11.35;3.05;;;27.40;99.90;;;;;;5033132;28;20025;-54
2022/09/24 11:35:34;;;;;;;10.95;4.75;;;27.50;99.90;;;;;;5033389;28;20028;-53
2022/09/24 11:38:38;;;;;;;9.40;3.42;;;27.50;99.90;;;;;;5033145;28;20067;-50
2022/09/24 11:41:09;;;;;;;5.88;3.38;;;27.60;99.90;;;;;;5033381;28;20025;-51
2022/09/24 11:43:56;;;;;;;10.27;4.22;;;27.60;99.90;;;;;;5033074;28;20044;-54
2022/09/24 11:46:27;;;;;;;;;;;27.70;99.90;;;;;;5033304;28;20021;-51
2022/09/24 11:49:15;;;;;;;8.55;4.72;;;27.80;99.90;;;;;;5033106;28;19937;-51
2022/09/24 11:52:06;;;;;;;5.55;3.10;;;27.80;99.90;;;;;;5014875;28;20416;-51
2022/09/24 11:54:56;;;;;;;10.25;4.65;;;27.80;99.90;;;;;;5032799;28;20021;-51
2022/09/24 11:57:29;;;;;;;12.50;6.68;;;27.90;99.90;;;;;;5032790;28;20029;-52
2022/09/24 11:59:57;;;;;;;12.98;7.53;;;27.90;99.90;;;;;;5032529;28;20473;-50
2022/09/24 12:02:41;;;;;;;12.70;5.75;;;27.90;99.90;;;;;;5032549;28;20033;-51
2022/09/24 12:05:18;;;;;;;11.70;8.60;;;27.90;99.90;;;;;;5024130;28;20385;-50
2022/09/24 12:07:56;;;;;;;8.63;5.35;;;27.90;99.90;;;;;;5030769;28;20021;-50
2022/09/24 12:10:45;;;;;;;11.57;5.50;;;27.90;99.90;;;;;;5012782;28;20037;-52
2022/09/24 12:13:18;;;;;;;7.45;4.38;;;28.00;99.90;;;;;;4992190;28;20026;-50
2022/09/24 12:15:55;;;;;;;15.88;6.53;;;28.00;99.90;;;;;;5025374;28;20482;-52
2022/09/24 12:18:34;;;;;;;9.00;4.60;;;28.00;99.90;;;;;;5012686;28;20116;-52
2022/09/24 12:21:08;;;;;;;6.55;3.80;;;28.10;99.90;;;;;;5024950;28;20412;-51
2022/09/24 12:23:38;;;;;;;12.30;5.93;;;28.20;99.90;;;;;;5028698;28;20045;-51
2022/09/24 12:26:05;;;;;;;21.45;15.93;;;28.20;99.90;;;;;;5032277;28;20025;-52
2022/09/24 12:35:37;;;;;;;23.30;17.13;;;28.40;99.90;;;;;;5032649;28;20130;-52
2022/09/24 12:38:29;;;;;;;11.70;6.75;;;28.50;99.90;;;;;;5031616;28;20124;-50
2022/09/24 12:41:39;;;;;;;11.25;6.43;;;28.50;99.90;;;;;;5012296;28;20489;-49
2022/09/24 12:44:10;;;;;;;11.80;6.20;;;28.50;99.90;;;;;;5010240;28;20508;-50
2022/09/24 12:46:53;;;;;;;10.18;4.90;;;28.40;99.90;;;;;;5031934;28;20037;-51
2022/09/24 12:49:21;;;;;;;11.40;6.72;;;28.30;99.90;;;;;;5017328;28;20421;-50
2022/09/24 12:51:47;;;;;;;8.48;5.70;;;28.30;99.90;;;;;;5016968;28;20116;-52
2022/09/24 12:54:27;;;;;;;8.38;5.20;;;28.20;99.90;;;;;;5031706;28;20101;-48
2022/09/24 12:57:44;;;;;;;11.05;6.45;;;28.10;99.90;;;;;;5031223;28;20029;-52
2022/09/24 13:00:34;;;;;;;7.80;4.25;;;28.10;99.90;;;;;;4956952;28;20045;-52
2022/09/24 13:03:01;;;;;;;6.45;3.05;;;28.10;99.90;;;;;;4961854;28;20069;-51
2022/09/24 13:05:33;;;;;;;11.20;4.85;;;28.10;99.90;;;;;;5009297;28;20076;-49
2022/09/24 13:08:06;;;;;;;10.18;3.25;;;28.10;99.90;;;;;;5013614;28;20436;-52
2022/09/24 13:10:36;;;;;;;9.13;3.55;;;28.10;99.90;;;;;;5031021;28;20393;-50
2022/09/24 13:13:21;;;;;;;8.23;3.00;;;28.10;99.90;;;;;;5031172;28;20034;-49
2022/09/24 13:16:02;;;;;;;9.40;4.32;;;28.10;99.90;;;;;;5030976;28;20045;-54
2022/09/24 13:18:30;;;;;;;7.80;3.70;;;28.20;99.90;;;;;;5030954;28;20377;-48
2022/09/24 13:21:07;;;;;;;4.43;2.63;;;28.20;99.90;;;;;;5031030;28;20025;-52
2022/09/24 13:23:35;;;;;;;8.63;2.67;;;28.20;99.90;;;;;;5031172;28;20484;-49
2022/09/24 13:26:05;;;;;;;5.05;2.60;;;28.20;99.90;;;;;;5030805;28;20021;-48